createdAt,value
2023-01-09T00:01:37.767Z,2.90
2023-01-09T00:04:06.017Z,3.13
2023-01-09T00:06:33.883Z,3.67
2023-01-09T00:09:01.957Z,3.53
2023-01-09T00:11:29.922Z,4.25
2023-01-09T00:13:59.077Z,3.90
2023-01-09T00:16:26.824Z,2.72
2023-01-09T00:18:54.827Z,2.38
2023-01-09T00:21:22.447Z,2.45
2023-01-09T00:23:50.017Z,3.40
2023-01-09T00:26:19.079Z,2.97
2023-01-09T00:28:47.847Z,3.08
2023-01-09T00:31:17.671Z,2.38
2023-01-09T00:33:49.418Z,1.63
2023-01-09T00:36:16.967Z,2.65
2023-01-09T00:38:44.616Z,2.80
2023-01-09T00:41:15.543Z,3.80
2023-01-09T00:43:46.034Z,2.22
2023-01-09T00:46:14.977Z,2.30
2023-01-09T00:48:46.245Z,2.67
2023-01-09T00:51:14.000Z,2.80
2023-01-09T00:53:43.818Z,2.95
2023-01-09T00:56:16.084Z,2.35
2023-01-09T00:58:44.179Z,2.30
2023-01-09T01:01:12.276Z,1.85
2023-01-09T01:03:40.493Z,1.50
2023-01-09T01:06:26.946Z,1.88
2023-01-09T01:08:55.706Z,1.38
2023-01-09T01:11:23.911Z,1.20
2023-01-09T01:13:52.117Z,3.58
2023-01-09T01:16:19.873Z,1.88
2023-01-09T01:18:47.515Z,2.17
2023-01-09T01:21:16.410Z,2.25
2023-01-09T01:23:44.847Z,4.18
2023-01-09T01:26:15.742Z,1.88
2023-01-09T01:28:44.925Z,2.78
2023-01-09T01:31:18.241Z,2.30
2023-01-09T01:33:46.024Z,2.42
2023-01-09T01:36:16.152Z,0.85
2023-01-09T01:38:46.729Z,1.50
2023-01-09T01:41:14.463Z,1.52
2023-01-09T01:43:52.773Z,3.15
2023-01-09T01:46:20.552Z,1.40
2023-01-09T01:48:51.409Z,2.30
2023-01-09T01:51:20.615Z,0.82
2023-01-09T01:53:54.042Z,2.83
2023-01-09T01:56:28.465Z,1.67
2023-01-09T01:59:00.101Z,1.33
2023-01-09T02:01:30.327Z,1.48
2023-01-09T02:04:00.168Z,2.90
2023-01-09T02:06:28.636Z,1.48
2023-01-09T02:08:58.216Z,2.42
2023-01-09T02:11:25.911Z,1.20
2023-01-09T02:13:53.879Z,1.48
2023-01-09T02:16:39.647Z,1.48
2023-01-09T02:19:20.512Z,1.92
2023-01-09T02:22:00.193Z,1.52
2023-01-09T02:24:46.648Z,1.25
2023-01-09T02:27:24.321Z,2.03
2023-01-09T02:30:21.416Z,0.82
2023-01-09T02:33:00.551Z,1.75
2023-01-09T02:35:41.781Z,2.05
2023-01-09T02:38:19.021Z,2.65
2023-01-09T02:40:53.997Z,2.22
2023-01-09T02:43:22.136Z,1.35
2023-01-09T02:45:51.101Z,0.80
2023-01-09T02:48:18.759Z,1.70
2023-01-09T02:50:52.029Z,5.32
2023-01-09T02:53:53.445Z,2.78
2023-01-09T02:56:34.299Z,4.07
2023-01-09T02:59:24.737Z,4.28
2023-01-09T03:02:09.128Z,1.35
2023-01-09T03:04:45.033Z,2.67
2023-01-09T03:07:21.231Z,1.65
2023-01-09T03:09:52.520Z,1.35
2023-01-09T03:12:23.140Z,2.78
2023-01-09T03:14:54.262Z,1.20
2023-01-09T03:17:28.664Z,1.65
2023-01-09T03:19:57.909Z,3.03
2023-01-09T03:22:25.708Z,1.85
2023-01-09T03:24:53.444Z,1.30
2023-01-09T03:27:21.501Z,1.95
2023-01-09T03:29:49.075Z,1.83
2023-01-09T03:32:16.605Z,2.88
2023-01-09T03:34:45.595Z,2.28
2023-01-09T03:37:13.186Z,4.25
2023-01-09T03:39:40.716Z,2.42
2023-01-09T03:42:08.298Z,5.00
2023-01-09T03:44:35.869Z,1.15
2023-01-09T03:47:03.427Z,2.63
2023-01-09T03:49:30.991Z,2.13
2023-01-09T03:51:59.853Z,2.92
2023-01-09T03:54:27.433Z,1.92
2023-01-09T03:56:54.985Z,1.42
2023-01-09T03:59:22.640Z,1.90
2023-01-09T04:01:50.333Z,1.25
2023-01-09T04:04:18.177Z,2.58
2023-01-09T04:06:45.789Z,2.05
2023-01-09T04:09:14.669Z,1.92
2023-01-09T04:11:42.267Z,1.73
2023-01-09T04:14:09.833Z,2.15
2023-01-09T04:16:37.480Z,0.95
2023-01-09T04:19:05.031Z,2.28
2023-01-09T04:21:32.719Z,3.00
2023-01-09T04:24:00.456Z,1.60
2023-01-09T04:26:29.432Z,3.10
2023-01-09T04:28:57.243Z,0.75
2023-01-09T04:31:24.894Z,1.05
2023-01-09T04:33:52.512Z,1.85
2023-01-09T04:36:20.182Z,0.82
2023-01-09T04:38:47.681Z,2.70
2023-01-09T04:41:35.867Z,0.82
2023-01-09T04:44:04.860Z,1.63
2023-01-09T04:46:32.460Z,1.65
2023-01-09T04:49:00.109Z,0.98
2023-01-09T04:51:27.650Z,1.20
2023-01-09T04:53:55.160Z,1.42
2023-01-09T04:56:22.876Z,2.88
2023-01-09T04:58:50.384Z,1.10
2023-01-09T05:01:19.350Z,3.30
2023-01-09T05:03:47.037Z,0.73
2023-01-09T05:06:14.711Z,1.20
2023-01-09T05:08:42.348Z,0.63
2023-01-09T05:11:09.984Z,0.68
2023-01-09T05:13:37.616Z,0.40
2023-01-09T05:16:06.618Z,0.52
2023-01-09T05:18:35.679Z,0.55
2023-01-09T05:21:03.334Z,0.20
2023-01-09T05:23:30.897Z,0.45
2023-01-09T05:25:58.532Z,0.35
2023-01-09T05:28:26.097Z,0.95
2023-01-09T05:30:53.702Z,1.52
2023-01-09T05:33:21.428Z,0.52
2023-01-09T05:35:50.391Z,0.30
2023-01-09T05:38:18.066Z,1.08
2023-01-09T05:40:45.599Z,0.85
2023-01-09T05:43:13.769Z,1.40
2023-01-09T05:45:41.321Z,1.17
2023-01-09T05:48:08.962Z,1.40
2023-01-09T05:50:36.627Z,2.42
2023-01-09T05:53:06.545Z,3.05
2023-01-09T05:55:34.172Z,2.67
2023-01-09T05:58:01.778Z,3.50
2023-01-09T06:00:29.373Z,3.03
2023-01-09T06:02:57.035Z,6.20
2023-01-09T06:05:24.688Z,8.73
2023-01-09T06:07:52.275Z,4.93
2023-01-09T06:10:21.218Z,2.17
2023-01-09T06:12:50.520Z,2.45
2023-01-09T06:15:21.134Z,1.27
2023-01-09T06:17:48.732Z,2.78
2023-01-09T06:20:16.528Z,1.15
2023-01-09T06:22:45.230Z,2.00
2023-01-09T06:25:13.322Z,1.67
2023-01-09T06:27:42.176Z,2.08
2023-01-09T06:30:10.915Z,2.55
2023-01-09T06:32:38.700Z,1.63
2023-01-09T06:35:06.911Z,3.95
2023-01-09T06:37:34.476Z,1.88
2023-01-09T06:40:02.171Z,2.63
2023-01-09T06:42:30.226Z,7.07
2023-01-09T06:44:59.156Z,2.05
2023-01-09T06:47:26.773Z,7.18
2023-01-09T06:49:54.338Z,5.70
2023-01-09T06:52:21.993Z,4.10
2023-01-09T06:54:49.536Z,2.53
2023-01-09T06:57:17.111Z,3.38
2023-01-09T06:59:44.648Z,3.33
2023-01-09T07:02:19.446Z,4.65
2023-01-09T07:04:47.254Z,3.90
2023-01-09T07:07:15.384Z,6.07
2023-01-09T07:09:42.937Z,4.05
2023-01-09T07:12:11.140Z,4.03
2023-01-09T07:14:38.667Z,4.95
2023-01-09T07:17:06.293Z,3.83
2023-01-09T07:19:35.160Z,3.88
2023-01-09T07:22:02.730Z,5.97
2023-01-09T07:24:30.274Z,4.18
2023-01-09T07:26:57.821Z,4.50
2023-01-09T07:29:25.380Z,5.70
2023-01-09T07:31:52.929Z,8.18
2023-01-09T07:34:20.621Z,3.38
2023-01-09T07:36:51.056Z,10.85
2023-01-09T07:39:18.729Z,6.00
2023-01-09T07:41:46.522Z,5.80
2023-01-09T07:44:14.688Z,6.80
2023-01-09T07:46:42.408Z,3.45
2023-01-09T07:49:10.117Z,5.25
2023-01-09T07:51:39.081Z,7.50
2023-01-09T07:54:08.015Z,5.65
2023-01-09T07:56:35.590Z,5.75
2023-01-09T07:59:03.165Z,9.50
2023-01-09T08:01:30.920Z,5.40
2023-01-09T08:03:58.701Z,5.22
2023-01-09T08:06:26.333Z,8.52
2023-01-09T08:08:53.917Z,5.22
2023-01-09T08:11:22.780Z,8.15
2023-01-09T08:13:50.708Z,9.23
2023-01-09T08:16:18.478Z,7.95
2023-01-09T08:18:46.076Z,9.25
2023-01-09T08:21:14.270Z,8.30
2023-01-09T08:23:41.862Z,11.40
2023-01-09T08:26:09.875Z,9.18
2023-01-09T08:28:38.810Z,6.70
2023-01-09T08:31:06.611Z,6.30
2023-01-09T08:33:34.282Z,10.43
2023-01-09T08:36:01.897Z,8.23
2023-01-09T08:38:29.566Z,8.25
2023-01-09T08:40:57.126Z,8.18
2023-01-09T08:43:42.619Z,8.73
2023-01-09T08:46:37.929Z,5.85
2023-01-09T08:49:05.553Z,11.48
2023-01-09T08:51:33.187Z,6.07
2023-01-09T08:54:00.729Z,10.50
2023-01-09T08:56:28.299Z,6.15
2023-01-09T08:58:55.865Z,7.32
2023-01-09T09:01:24.755Z,4.68
2023-01-09T09:03:52.368Z,5.95
2023-01-09T09:06:19.966Z,5.93
2023-01-09T09:08:47.574Z,4.88
2023-01-09T09:11:15.096Z,7.57
2023-01-09T09:13:42.646Z,5.85
2023-01-09T09:16:10.256Z,7.28
2023-01-09T09:18:39.255Z,5.85
2023-01-09T09:21:06.921Z,5.40
2023-01-09T09:23:34.491Z,4.55
2023-01-09T09:26:02.077Z,3.60
2023-01-09T09:28:29.673Z,4.85
2023-01-09T09:30:57.299Z,5.95
2023-01-09T09:33:25.051Z,4.93
2023-01-09T09:35:53.930Z,3.17
2023-01-09T09:38:21.475Z,4.93
2023-01-09T09:41:04.267Z,2.78
2023-01-09T09:44:19.308Z,3.85
2023-01-09T09:46:56.263Z,5.80
2023-01-09T09:49:28.759Z,4.20
2023-01-09T09:52:10.541Z,3.42
2023-01-09T09:54:42.285Z,4.65
2023-01-09T09:57:16.162Z,1.67
2023-01-09T09:59:44.245Z,3.08
2023-01-09T10:02:25.900Z,4.78
2023-01-09T10:05:00.074Z,7.60
2023-01-09T10:07:34.044Z,1.10
2023-01-09T10:10:05.050Z,4.38
2023-01-09T10:12:36.614Z,2.38
2023-01-09T10:15:15.255Z,1.02
2023-01-09T10:17:55.268Z,4.63
2023-01-09T10:20:48.926Z,3.92
2023-01-09T10:23:33.553Z,2.97
2023-01-09T10:26:07.540Z,2.80
2023-01-09T10:28:56.112Z,1.75
2023-01-09T10:31:33.271Z,2.47
2023-01-09T10:34:14.880Z,1.10
2023-01-09T10:37:00.920Z,3.00
2023-01-09T10:39:36.525Z,1.92
2023-01-09T10:42:11.194Z,1.23
2023-01-09T10:44:48.158Z,2.88
2023-01-09T10:47:18.662Z,1.08
2023-01-09T10:49:48.727Z,2.45
2023-01-09T10:52:18.246Z,3.13
2023-01-09T10:54:56.110Z,2.22
2023-01-09T10:57:42.021Z,1.52
2023-01-09T11:00:17.877Z,1.33
2023-01-09T11:02:46.083Z,3.53
2023-01-09T11:05:18.218Z,2.97
2023-01-09T11:07:49.666Z,1.50
2023-01-09T11:10:19.190Z,1.73
2023-01-09T11:12:47.508Z,1.30
2023-01-09T11:15:28.968Z,1.95
2023-01-09T11:18:14.832Z,3.60
2023-01-09T11:20:42.412Z,4.38
2023-01-09T11:23:25.645Z,2.85
2023-01-09T11:25:56.772Z,4.50
2023-01-09T11:28:24.504Z,1.60
2023-01-09T11:30:55.417Z,2.40
2023-01-09T11:33:25.607Z,6.38
2023-01-09T11:36:00.476Z,4.38
2023-01-09T11:38:28.941Z,2.35
2023-01-09T11:41:01.336Z,3.90
2023-01-09T11:43:34.044Z,3.15
2023-01-09T11:46:04.339Z,4.72
2023-01-09T11:48:35.486Z,2.13
2023-01-09T11:51:06.053Z,2.88
2023-01-09T11:53:59.023Z,3.72
2023-01-09T11:56:28.056Z,3.40
2023-01-09T11:58:55.689Z,2.85
2023-01-09T12:01:46.717Z,2.67
2023-01-09T12:04:30.055Z,3.60
2023-01-09T12:07:20.531Z,2.25
2023-01-09T12:10:01.945Z,2.33
2023-01-09T12:12:36.164Z,3.80
2023-01-09T12:15:17.172Z,2.25
2023-01-09T12:17:59.879Z,2.47
2023-01-09T12:20:42.235Z,2.08
2023-01-09T12:23:26.758Z,1.83
2023-01-09T12:26:06.499Z,1.70
2023-01-09T12:28:48.887Z,1.23
2023-01-09T12:31:28.388Z,4.20
2023-01-09T12:34:09.273Z,2.65
2023-01-09T12:36:44.396Z,2.13
2023-01-09T12:39:24.397Z,6.18
2023-01-09T12:42:06.952Z,5.82
2023-01-09T12:44:50.444Z,3.40
2023-01-09T12:47:45.118Z,4.15
2023-01-09T12:50:26.376Z,5.60
2023-01-09T12:53:06.931Z,1.73
2023-01-09T12:55:39.729Z,1.90
2023-01-09T12:58:14.365Z,1.70
2023-01-09T13:00:47.836Z,3.13
2023-01-09T13:03:21.546Z,1.83
2023-01-09T13:05:53.622Z,3.13
2023-01-09T13:08:27.487Z,1.52
2023-01-09T13:11:14.849Z,1.35
2023-01-09T13:13:51.274Z,2.60
2023-01-09T13:16:25.900Z,2.85
2023-01-09T13:18:59.426Z,4.30
2023-01-09T13:21:28.479Z,1.52
2023-01-09T13:24:03.721Z,1.38
2023-01-09T13:26:37.134Z,1.23
2023-01-09T13:29:14.041Z,3.30
2023-01-09T13:32:14.824Z,1.42
2023-01-09T13:34:47.975Z,3.80
2023-01-09T13:37:26.311Z,1.08
2023-01-09T13:40:02.331Z,2.05
2023-01-09T13:42:36.557Z,2.40
2023-01-09T13:45:24.692Z,1.67
2023-01-09T13:48:26.602Z,3.03
2023-01-09T13:51:35.129Z,1.80
2023-01-09T13:54:03.625Z,2.65
2023-01-09T13:56:31.530Z,0.77
2023-01-09T13:59:02.972Z,1.60
2023-01-09T14:01:44.347Z,1.73
2023-01-09T14:04:41.776Z,2.25
2023-01-09T14:07:32.566Z,0.75
2023-01-09T14:10:02.666Z,3.53
2023-01-09T14:12:34.215Z,0.85
2023-01-09T14:15:03.510Z,1.98
2023-01-09T14:17:34.906Z,2.08
2023-01-09T14:20:06.036Z,1.30
2023-01-09T14:22:45.665Z,1.05
2023-01-09T14:25:28.214Z,2.53
2023-01-09T14:28:20.047Z,1.05
2023-01-09T14:31:09.862Z,2.72
2023-01-09T14:33:39.958Z,1.90
2023-01-09T14:36:16.359Z,4.03
2023-01-09T14:38:51.079Z,3.50
2023-01-09T14:41:43.889Z,2.38
2023-01-09T14:44:26.132Z,2.03
2023-01-09T14:46:55.518Z,2.08
2023-01-09T14:49:34.143Z,3.08
2023-01-09T14:52:08.768Z,2.13
2023-01-09T14:54:41.179Z,1.58
2023-01-09T14:57:25.268Z,3.30
2023-01-09T15:00:00.679Z,1.83
2023-01-09T15:02:32.191Z,2.25
2023-01-09T15:05:05.895Z,1.75
2023-01-09T15:07:40.558Z,1.40
2023-01-09T15:10:17.688Z,2.28
2023-01-09T15:12:46.544Z,3.65
2023-01-09T15:15:16.798Z,1.20
2023-01-09T15:17:47.323Z,3.25
2023-01-09T15:20:19.890Z,2.58
2023-01-09T15:22:52.763Z,3.85
2023-01-09T15:25:33.934Z,2.15
2023-01-09T15:28:28.930Z,1.67
2023-01-09T15:31:02.801Z,3.08
2023-01-09T15:33:31.302Z,2.13
2023-01-09T15:36:02.782Z,5.15
2023-01-09T15:38:33.321Z,2.45
2023-01-09T15:41:09.680Z,5.10
2023-01-09T15:43:42.149Z,2.55
2023-01-09T15:46:12.116Z,2.20
2023-01-09T15:48:40.055Z,3.17
2023-01-09T15:51:11.099Z,4.72
2023-01-09T15:53:41.538Z,5.53
2023-01-09T15:56:19.489Z,2.80
2023-01-09T15:58:48.311Z,4.40
2023-01-09T16:01:29.789Z,2.47
2023-01-09T16:04:05.010Z,2.33
2023-01-09T16:06:36.699Z,3.13
2023-01-09T16:09:15.726Z,2.30
2023-01-09T16:11:49.225Z,2.78
2023-01-09T16:14:22.863Z,1.67
2023-01-09T16:16:53.005Z,2.42
2023-01-09T16:19:32.228Z,2.63
2023-01-09T16:22:01.544Z,1.90
2023-01-09T16:24:40.655Z,0.80
2023-01-09T16:27:23.790Z,1.80
2023-01-09T16:29:57.568Z,3.60
2023-01-09T16:32:28.473Z,4.53
2023-01-09T16:34:58.010Z,2.35
2023-01-09T16:37:27.119Z,2.45
2023-01-09T16:40:26.347Z,1.88
2023-01-09T16:43:03.954Z,2.60
2023-01-09T16:45:37.347Z,3.08
2023-01-09T16:48:13.043Z,2.95
2023-01-09T16:50:41.124Z,3.40
2023-01-09T16:53:15.502Z,2.90
2023-01-09T16:55:43.466Z,3.58
2023-01-09T16:58:17.004Z,2.67
2023-01-09T17:00:46.061Z,4.22
2023-01-09T17:03:15.477Z,1.70
2023-01-09T17:05:43.760Z,2.10
2023-01-09T17:08:24.641Z,1.67
2023-01-09T17:10:52.820Z,3.33
2023-01-09T17:13:22.027Z,2.90
2023-01-09T17:15:50.143Z,2.95
2023-01-09T17:18:19.673Z,1.83
2023-01-09T17:20:50.884Z,2.47
2023-01-09T17:23:20.759Z,1.83
2023-01-09T17:26:15.649Z,5.75
2023-01-09T17:28:48.890Z,6.95
2023-01-09T17:31:16.599Z,8.50
2023-01-09T17:33:44.275Z,4.20
2023-01-09T17:36:22.680Z,4.00
2023-01-09T17:38:54.706Z,4.85
2023-01-09T17:41:23.425Z,2.33
2023-01-09T17:43:53.242Z,4.15
2023-01-09T17:46:27.193Z,4.03
2023-01-09T17:48:54.987Z,3.08
2023-01-09T17:51:23.041Z,3.70
2023-01-09T17:53:51.052Z,6.30
2023-01-09T17:56:20.804Z,2.75
2023-01-09T17:58:48.738Z,1.70
2023-01-09T18:01:19.465Z,2.58
2023-01-09T18:03:48.761Z,1.42
2023-01-09T18:06:18.380Z,4.28
2023-01-09T18:08:45.982Z,3.53
2023-01-09T18:11:17.454Z,4.60
2023-01-09T18:13:45.538Z,3.75
2023-01-09T18:16:13.987Z,3.97
2023-01-09T18:18:44.838Z,4.90
2023-01-09T18:21:16.550Z,2.90
2023-01-09T18:23:44.279Z,2.88
2023-01-09T18:26:20.000Z,3.97
2023-01-09T18:28:49.926Z,2.88
2023-01-09T18:31:21.976Z,3.85
2023-01-09T18:33:52.594Z,6.72
2023-01-09T18:36:21.563Z,3.67
2023-01-09T18:38:53.473Z,4.07
2023-01-09T18:41:22.575Z,5.47
2023-01-09T18:43:50.785Z,5.90
2023-01-09T18:46:20.558Z,3.60
2023-01-09T18:48:53.348Z,5.68
2023-01-09T18:51:22.051Z,5.38
2023-01-09T18:53:50.015Z,3.97
2023-01-09T18:56:19.120Z,3.28
2023-01-09T18:58:46.963Z,5.25
2023-01-09T19:01:15.229Z,3.95
2023-01-09T19:03:43.264Z,3.63
2023-01-09T19:06:13.608Z,3.67
2023-01-09T19:08:41.177Z,5.65
2023-01-09T19:11:08.953Z,3.67
2023-01-09T19:13:37.842Z,4.68
2023-01-09T19:16:07.142Z,4.07
2023-01-09T19:18:35.981Z,5.50
2023-01-09T19:21:09.265Z,7.22
2023-01-09T19:23:38.255Z,6.35
2023-01-09T19:26:09.160Z,5.22
2023-01-09T19:28:38.136Z,7.25
2023-01-09T19:31:05.991Z,6.82
2023-01-09T19:33:33.551Z,5.65
2023-01-09T19:36:01.175Z,4.82
2023-01-09T19:38:28.787Z,7.78
2023-01-09T19:41:08.896Z,4.82
2023-01-09T19:43:36.635Z,4.13
2023-01-09T19:46:07.965Z,3.70
2023-01-09T19:48:35.629Z,4.13
2023-01-09T19:51:04.411Z,3.55
2023-01-09T19:53:32.702Z,3.13
2023-01-09T19:56:13.312Z,3.92
2023-01-09T19:58:41.342Z,2.78
2023-01-09T20:01:12.231Z,4.97
2023-01-09T20:03:41.473Z,3.53
2023-01-09T20:06:14.851Z,5.60
2023-01-09T20:08:42.632Z,3.15
2023-01-09T20:11:12.361Z,4.25
2023-01-09T20:13:40.197Z,5.15
2023-01-09T20:16:09.080Z,9.07
2023-01-09T20:18:36.873Z,4.97
2023-01-09T20:21:04.698Z,6.90
2023-01-09T20:23:33.354Z,4.75
2023-01-09T20:26:01.473Z,5.68
2023-01-09T20:28:30.451Z,7.53
2023-01-09T20:30:58.176Z,8.93
2023-01-09T20:33:26.015Z,7.88
2023-01-09T20:35:53.605Z,6.45
2023-01-09T20:38:21.173Z,7.50
2023-01-09T20:40:48.782Z,7.15
2023-01-09T20:43:16.462Z,9.85
2023-01-09T20:45:45.530Z,7.53
2023-01-09T20:48:14.490Z,7.47
2023-01-09T20:50:42.542Z,5.60
2023-01-09T20:53:10.164Z,7.07
2023-01-09T20:55:37.746Z,6.15
2023-01-09T20:58:05.415Z,5.18
2023-01-09T21:00:33.047Z,6.20
2023-01-09T21:03:02.122Z,6.80
2023-01-09T21:05:29.829Z,8.02
2023-01-09T21:07:57.610Z,5.00
2023-01-09T21:10:25.262Z,9.05
2023-01-09T21:12:52.847Z,6.68
2023-01-09T21:15:21.384Z,11.63
2023-01-09T21:17:49.193Z,8.65
2023-01-09T21:20:18.683Z,12.07
2023-01-09T21:22:46.417Z,5.20
2023-01-09T21:25:15.751Z,7.95
2023-01-09T21:27:45.432Z,7.22
2023-01-09T21:30:13.676Z,8.93
2023-01-09T21:32:41.603Z,8.05
2023-01-09T21:35:10.265Z,8.13
2023-01-09T21:37:39.546Z,8.75
2023-01-09T21:40:12.161Z,10.73
2023-01-09T21:42:57.864Z,9.90
2023-01-09T21:45:43.186Z,11.30
2023-01-09T21:48:11.877Z,8.88
2023-01-09T21:50:41.019Z,11.75
2023-01-09T21:53:10.151Z,7.20
2023-01-09T21:55:38.097Z,7.55
2023-01-09T21:58:05.984Z,8.05
2023-01-09T22:00:33.800Z,9.20
2023-01-09T22:03:01.980Z,8.35
2023-01-09T22:05:29.845Z,11.60
2023-01-09T22:07:57.874Z,8.70
2023-01-09T22:10:28.203Z,13.07
2023-01-09T22:13:16.106Z,11.63
2023-01-09T22:15:44.853Z,9.98
2023-01-09T22:18:12.532Z,7.53
2023-01-09T22:20:40.177Z,9.07
2023-01-09T22:23:07.996Z,8.85
2023-01-09T22:25:38.747Z,9.30
2023-01-09T22:28:09.956Z,11.88
2023-01-09T22:30:40.375Z,8.93
2023-01-09T22:33:10.653Z,8.00
2023-01-09T22:35:38.716Z,8.10
2023-01-09T22:38:06.543Z,9.40
2023-01-09T22:40:34.267Z,11.30
2023-01-09T22:43:03.241Z,7.97
2023-01-09T22:45:30.997Z,8.60
2023-01-09T22:47:58.618Z,11.05
2023-01-09T22:50:26.518Z,9.07
2023-01-09T22:52:54.133Z,9.93
2023-01-09T22:55:21.700Z,8.48
2023-01-09T22:57:49.567Z,8.65
2023-01-09T23:00:19.321Z,11.35
2023-01-09T23:02:48.278Z,10.98
2023-01-09T23:05:16.251Z,14.63
2023-01-09T23:07:43.912Z,14.82
2023-01-09T23:10:12.219Z,17.17
2023-01-09T23:12:39.859Z,10.95
2023-01-09T23:15:09.965Z,11.18
2023-01-09T23:17:38.827Z,12.70
2023-01-09T23:20:07.316Z,12.10
2023-01-09T23:22:34.958Z,11.65
2023-01-09T23:25:02.661Z,7.70
2023-01-09T23:27:30.248Z,11.18
2023-01-09T23:29:57.870Z,10.15
2023-01-09T23:32:25.463Z,12.98
2023-01-09T23:34:55.326Z,15.48
2023-01-09T23:37:22.961Z,12.40
2023-01-09T23:39:50.678Z,11.27
2023-01-09T23:42:44.265Z,9.13
2023-01-09T23:45:11.921Z,12.32
2023-01-09T23:47:39.537Z,15.90
2023-01-09T23:50:10.874Z,12.10
2023-01-09T23:52:38.499Z,13.95
2023-01-09T23:55:07.232Z,10.48
2023-01-09T23:57:34.826Z,11.20
